Greenfield, Illinois
Current Conditions -  °F | °C
As of 5:55 PM on Monday 20 Oct 2014 (Local Time) from KIJX Reporting Station
Clear Clear  
Wind Chill: 66°   Ceiling: Unl
Heat Index: 66°   Visibility: 10mi
Dew Point: 43°   Wind: 7mph
Humidity: 43%   Direction: 310°NW
Pressure: 29.97"   Gusts: NA
Location:  39.34°N, 90.21°W
Report Text: KIJX 202255Z AUTO 31006KT 10SM CLR 19/06 A2997 RMK AO2 T01910063
Loading
Personal Weather Stations






























Interactive Weather Map
Tropical Storm Tracking
New forecast layout! Learn more

10-Day Weather Forecast

Advertisements
Track Severe Weather on mobile